sensor_id;sensor_type;location;lat;lon;timestamp;P1;durP1;ratioP1;P2;durP2;ratioP2
18340;SDS011;9296;48.084;16.352;2023-02-28T00:01:41;15.83;;;7.20;;
18340;SDS011;9296;48.084;16.352;2023-02-28T00:04:08;13.40;;;6.80;;
18340;SDS011;9296;48.084;16.352;2023-02-28T00:06:35;11.77;;;6.83;;
18340;SDS011;9296;48.084;16.352;2023-02-28T00:09:02;15.27;;;6.73;;
18340;SDS011;9296;48.084;16.352;2023-02-28T00:11:29;12.13;;;6.93;;
18340;SDS011;9296;48.084;16.352;2023-02-28T00:13:56;12.63;;;7.20;;
18340;SDS011;9296;48.084;16.352;2023-02-28T00:16:24;10.73;;;6.63;;
18340;SDS011;9296;48.084;16.352;2023-02-28T00:18:51;13.53;;;7.10;;
18340;SDS011;9296;48.084;16.352;2023-02-28T00:21:19;12.10;;;6.80;;
18340;SDS011;9296;48.084;16.352;2023-02-28T00:26:32;13.83;;;6.77;;
18340;SDS011;9296;48.084;16.352;2023-02-28T00:28:59;11.23;;;6.83;;
18340;SDS011;9296;48.084;16.352;2023-02-28T00:31:27;15.00;;;6.83;;
18340;SDS011;9296;48.084;16.352;2023-02-28T00:33:54;12.77;;;7.20;;
18340;SDS011;9296;48.084;16.352;2023-02-28T00:36:21;13.50;;;7.30;;
18340;SDS011;9296;48.084;16.352;2023-02-28T00:38:48;12.50;;;7.03;;
18340;SDS011;9296;48.084;16.352;2023-02-28T00:41:15;12.83;;;6.97;;
18340;SDS011;9296;48.084;16.352;2023-02-28T00:43:42;10.83;;;7.00;;
18340;SDS011;9296;48.084;16.352;2023-02-28T00:46:09;15.20;;;7.50;;
18340;SDS011;9296;48.084;16.352;2023-02-28T00:48:38;12.90;;;7.00;;
18340;SDS011;9296;48.084;16.352;2023-02-28T00:51:05;12.90;;;6.67;;
18340;SDS011;9296;48.084;16.352;2023-02-28T00:57:12;16.67;;;7.87;;
18340;SDS011;9296;48.084;16.352;2023-02-28T00:59:38;14.33;;;7.53;;
18340;SDS011;9296;48.084;16.352;2023-02-28T01:02:05;13.83;;;7.67;;
18340;SDS011;9296;48.084;16.352;2023-02-28T01:04:34;12.10;;;7.43;;
18340;SDS011;9296;48.084;16.352;2023-02-28T01:07:01;13.20;;;7.53;;
18340;SDS011;9296;48.084;16.352;2023-02-28T01:09:28;13.47;;;7.50;;
18340;SDS011;9296;48.084;16.352;2023-02-28T01:11:55;13.83;;;8.00;;
18340;SDS011;9296;48.084;16.352;2023-02-28T01:14:22;16.57;;;8.03;;
18340;SDS011;9296;48.084;16.352;2023-02-28T01:16:49;15.33;;;8.10;;
18340;SDS011;9296;48.084;16.352;2023-02-28T01:19:16;16.17;;;8.03;;
18340;SDS011;9296;48.084;16.352;2023-02-28T01:21:45;12.90;;;7.87;;
18340;SDS011;9296;48.084;16.352;2023-02-28T01:27:17;12.70;;;7.57;;
18340;SDS011;9296;48.084;16.352;2023-02-28T01:29:44;14.63;;;7.97;;
18340;SDS011;9296;48.084;16.352;2023-02-28T01:32:11;15.90;;;8.07;;
18340;SDS011;9296;48.084;16.352;2023-02-28T01:34:38;14.47;;;8.00;;
18340;SDS011;9296;48.084;16.352;2023-02-28T01:37:06;16.23;;;8.23;;
18340;SDS011;9296;48.084;16.352;2023-02-28T01:39:33;14.50;;;7.93;;
18340;SDS011;9296;48.084;16.352;2023-02-28T01:42:00;17.07;;;8.77;;
18340;SDS011;9296;48.084;16.352;2023-02-28T01:47:33;16.20;;;7.80;;
18340;SDS011;9296;48.084;16.352;2023-02-28T01:50:04;14.40;;;7.93;;
18340;SDS011;9296;48.084;16.352;2023-02-28T01:52:35;14.93;;;7.03;;
18340;SDS011;9296;48.084;16.352;2023-02-28T01:55:03;14.73;;;7.87;;
18340;SDS011;9296;48.084;16.352;2023-02-28T01:57:32;14.20;;;7.40;;
18340;SDS011;9296;48.084;16.352;2023-02-28T02:00:05;15.23;;;7.43;;
18340;SDS011;9296;48.084;16.352;2023-02-28T02:02:35;13.60;;;7.77;;
18340;SDS011;9296;48.084;16.352;2023-02-28T02:05:04;11.97;;;7.27;;
18340;SDS011;9296;48.084;16.352;2023-02-28T02:07:36;14.60;;;8.20;;
18340;SDS011;9296;48.084;16.352;2023-02-28T02:10:06;13.80;;;7.50;;
18340;SDS011;9296;48.084;16.352;2023-02-28T02:12:47;15.07;;;7.67;;
18340;SDS011;9296;48.084;16.352;2023-02-28T02:15:26;14.57;;;7.67;;
18340;SDS011;9296;48.084;16.352;2023-02-28T02:17:59;15.57;;;8.10;;
18340;SDS011;9296;48.084;16.352;2023-02-28T02:23:33;13.67;;;7.87;;
18340;SDS011;9296;48.084;16.352;2023-02-28T02:35:42;15.33;;;7.90;;
18340;SDS011;9296;48.084;16.352;2023-02-28T02:38:17;18.07;;;8.53;;
18340;SDS011;9296;48.084;16.352;2023-02-28T02:44:13;15.87;;;8.20;;
18340;SDS011;9296;48.084;16.352;2023-02-28T02:46:47;14.10;;;7.73;;
18340;SDS011;9296;48.084;16.352;2023-02-28T02:49:17;14.63;;;8.00;;
18340;SDS011;9296;48.084;16.352;2023-02-28T02:51:49;16.57;;;8.17;;
18340;SDS011;9296;48.084;16.352;2023-02-28T02:54:17;15.07;;;7.87;;
18340;SDS011;9296;48.084;16.352;2023-02-28T02:56:48;16.27;;;8.30;;
18340;SDS011;9296;48.084;16.352;2023-02-28T02:59:18;14.97;;;8.50;;
18340;SDS011;9296;48.084;16.352;2023-02-28T03:01:49;14.37;;;8.60;;
18340;SDS011;9296;48.084;16.352;2023-02-28T03:04:20;19.17;;;9.30;;
18340;SDS011;9296;48.084;16.352;2023-02-28T03:06:51;16.17;;;9.03;;
18340;SDS011;9296;48.084;16.352;2023-02-28T03:12:46;16.43;;;8.60;;
18340;SDS011;9296;48.084;16.352;2023-02-28T03:15:23;15.47;;;8.60;;
18340;SDS011;9296;48.084;16.352;2023-02-28T03:18:01;15.33;;;8.40;;
18340;SDS011;9296;48.084;16.352;2023-02-28T03:20:35;15.67;;;8.63;;
18340;SDS011;9296;48.084;16.352;2023-02-28T03:23:10;17.63;;;9.50;;
18340;SDS011;9296;48.084;16.352;2023-02-28T03:29:05;19.47;;;9.17;;
18340;SDS011;9296;48.084;16.352;2023-02-28T03:31:38;18.70;;;9.77;;
18340;SDS011;9296;48.084;16.352;2023-02-28T03:34:10;19.60;;;10.23;;
18340;SDS011;9296;48.084;16.352;2023-02-28T03:36:44;18.77;;;9.93;;
18340;SDS011;9296;48.084;16.352;2023-02-28T03:42:38;20.37;;;10.23;;
18340;SDS011;9296;48.084;16.352;2023-02-28T03:45:09;19.87;;;10.43;;
18340;SDS011;9296;48.084;16.352;2023-02-28T03:47:40;19.87;;;9.73;;
18340;SDS011;9296;48.084;16.352;2023-02-28T03:50:11;19.33;;;10.37;;
18340;SDS011;9296;48.084;16.352;2023-02-28T03:52:44;21.87;;;10.30;;
18340;SDS011;9296;48.084;16.352;2023-02-28T03:55:15;18.27;;;10.17;;
18340;SDS011;9296;48.084;16.352;2023-02-28T03:57:47;18.93;;;10.17;;
18340;SDS011;9296;48.084;16.352;2023-02-28T04:00:25;20.80;;;10.10;;
18340;SDS011;9296;48.084;16.352;2023-02-28T04:02:56;18.73;;;10.20;;
18340;SDS011;9296;48.084;16.352;2023-02-28T04:05:23;16.77;;;9.50;;
18340;SDS011;9296;48.084;16.352;2023-02-28T04:07:50;18.40;;;9.20;;
18340;SDS011;9296;48.084;16.352;2023-02-28T04:10:17;17.73;;;9.40;;
18340;SDS011;9296;48.084;16.352;2023-02-28T04:12:46;17.10;;;9.40;;
18340;SDS011;9296;48.084;16.352;2023-02-28T04:15:13;19.00;;;9.97;;
18340;SDS011;9296;48.084;16.352;2023-02-28T04:17:40;17.83;;;9.23;;
18340;SDS011;9296;48.084;16.352;2023-02-28T04:20:07;17.30;;;8.63;;
18340;SDS011;9296;48.084;16.352;2023-02-28T04:22:35;16.73;;;8.67;;
18340;SDS011;9296;48.084;16.352;2023-02-28T04:25:03;20.50;;;9.80;;
18340;SDS011;9296;48.084;16.352;2023-02-28T04:27:31;15.93;;;8.40;;
18340;SDS011;9296;48.084;16.352;2023-02-28T04:30:00;18.57;;;9.07;;
18340;SDS011;9296;48.084;16.352;2023-02-28T04:32:26;16.77;;;8.70;;
18340;SDS011;9296;48.084;16.352;2023-02-28T04:34:53;18.00;;;9.23;;
18340;SDS011;9296;48.084;16.352;2023-02-28T04:37:20;17.97;;;9.60;;
18340;SDS011;9296;48.084;16.352;2023-02-28T04:39:52;13.97;;;8.47;;
18340;SDS011;9296;48.084;16.352;2023-02-28T04:42:19;19.97;;;9.43;;
18340;SDS011;9296;48.084;16.352;2023-02-28T04:44:46;17.93;;;9.43;;
18340;SDS011;9296;48.084;16.352;2023-02-28T04:47:14;19.23;;;9.70;;
18340;SDS011;9296;48.084;16.352;2023-02-28T04:49:41;16.50;;;9.23;;
18340;SDS011;9296;48.084;16.352;2023-02-28T04:52:08;17.60;;;9.53;;
18340;SDS011;9296;48.084;16.352;2023-02-28T04:54:35;20.67;;;10.43;;
18340;SDS011;9296;48.084;16.352;2023-02-28T04:57:03;18.07;;;9.73;;
18340;SDS011;9296;48.084;16.352;2023-02-28T04:59:30;16.17;;;9.23;;
18340;SDS011;9296;48.084;16.352;2023-02-28T05:01:58;16.03;;;9.03;;
18340;SDS011;9296;48.084;16.352;2023-02-28T05:04:26;16.03;;;9.47;;
18340;SDS011;9296;48.084;16.352;2023-02-28T05:06:53;20.80;;;10.50;;
18340;SDS011;9296;48.084;16.352;2023-02-28T05:16:01;18.33;;;9.47;;
18340;SDS011;9296;48.084;16.352;2023-02-28T05:18:28;16.03;;;9.13;;
18340;SDS011;9296;48.084;16.352;2023-02-28T05:20:56;18.93;;;9.43;;
18340;SDS011;9296;48.084;16.352;2023-02-28T05:23:23;19.57;;;10.10;;
18340;SDS011;9296;48.084;16.352;2023-02-28T05:29:12;17.83;;;9.80;;
18340;SDS011;9296;48.084;16.352;2023-02-28T05:31:39;19.13;;;9.50;;
18340;SDS011;9296;48.084;16.352;2023-02-28T05:34:06;19.77;;;10.27;;
18340;SDS011;9296;48.084;16.352;2023-02-28T05:36:36;18.87;;;9.63;;
18340;SDS011;9296;48.084;16.352;2023-02-28T05:39:03;16.97;;;9.00;;
18340;SDS011;9296;48.084;16.352;2023-02-28T05:44:54;22.40;;;8.57;;
18340;SDS011;9296;48.084;16.352;2023-02-28T05:47:21;17.83;;;9.40;;
18340;SDS011;9296;48.084;16.352;2023-02-28T05:49:48;19.90;;;9.53;;
18340;SDS011;9296;48.084;16.352;2023-02-28T05:52:16;16.30;;;9.37;;
18340;SDS011;9296;48.084;16.352;2023-02-28T05:54:43;19.27;;;9.73;;
18340;SDS011;9296;48.084;16.352;2023-02-28T05:57:12;21.20;;;9.97;;
18340;SDS011;9296;48.084;16.352;2023-02-28T05:59:38;19.33;;;9.43;;
18340;SDS011;9296;48.084;16.352;2023-02-28T06:02:06;20.47;;;9.53;;
18340;SDS011;9296;48.084;16.352;2023-02-28T06:04:37;19.03;;;9.70;;
18340;SDS011;9296;48.084;16.352;2023-02-28T06:07:05;16.20;;;8.97;;
18340;SDS011;9296;48.084;16.352;2023-02-28T06:09:34;18.63;;;9.20;;
18340;SDS011;9296;48.084;16.352;2023-02-28T06:12:02;24.10;;;10.40;;
18340;SDS011;9296;48.084;16.352;2023-02-28T06:14:30;26.67;;;9.30;;
18340;SDS011;9296;48.084;16.352;2023-02-28T06:16:58;18.20;;;9.63;;
18340;SDS011;9296;48.084;16.352;2023-02-28T06:19:26;17.77;;;9.87;;
18340;SDS011;9296;48.084;16.352;2023-02-28T06:21:54;19.83;;;10.10;;
18340;SDS011;9296;48.084;16.352;2023-02-28T06:28:03;20.73;;;10.03;;
18340;SDS011;9296;48.084;16.352;2023-02-28T06:30:31;17.43;;;9.73;;
18340;SDS011;9296;48.084;16.352;2023-02-28T06:32:58;22.93;;;10.30;;
18340;SDS011;9296;48.084;16.352;2023-02-28T06:35:25;19.08;;;10.15;;
18340;SDS011;9296;48.084;16.352;2023-02-28T06:37:52;16.45;;;9.13;;
18340;SDS011;9296;48.084;16.352;2023-02-28T06:40:19;20.63;;;10.70;;
18340;SDS011;9296;48.084;16.352;2023-02-28T06:42:46;18.33;;;10.77;;
18340;SDS011;9296;48.084;16.352;2023-02-28T06:45:14;16.58;;;9.55;;
18340;SDS011;9296;48.084;16.352;2023-02-28T06:47:41;18.45;;;10.10;;
18340;SDS011;9296;48.084;16.352;2023-02-28T06:50:09;17.42;;;9.82;;
18340;SDS011;9296;48.084;16.352;2023-02-28T06:52:37;18.67;;;9.98;;
18340;SDS011;9296;48.084;16.352;2023-02-28T06:55:05;17.67;;;9.60;;
18340;SDS011;9296;48.084;16.352;2023-02-28T06:57:34;17.35;;;10.18;;
18340;SDS011;9296;48.084;16.352;2023-02-28T07:00:03;18.75;;;10.80;;
18340;SDS011;9296;48.084;16.352;2023-02-28T07:02:34;17.80;;;10.07;;
18340;SDS011;9296;48.084;16.352;2023-02-28T07:05:01;17.65;;;10.38;;
18340;SDS011;9296;48.084;16.352;2023-02-28T07:07:28;17.50;;;10.65;;
18340;SDS011;9296;48.084;16.352;2023-02-28T07:16:24;19.27;;;10.85;;
18340;SDS011;9296;48.084;16.352;2023-02-28T07:18:53;19.95;;;11.18;;
18340;SDS011;9296;48.084;16.352;2023-02-28T07:21:20;18.45;;;11.15;;
18340;SDS011;9296;48.084;16.352;2023-02-28T07:23:47;20.27;;;11.57;;
18340;SDS011;9296;48.084;16.352;2023-02-28T07:26:15;19.52;;;11.70;;
18340;SDS011;9296;48.084;16.352;2023-02-28T07:28:44;19.52;;;11.43;;
18340;SDS011;9296;48.084;16.352;2023-02-28T07:31:12;19.38;;;11.43;;
18340;SDS011;9296;48.084;16.352;2023-02-28T07:33:40;18.70;;;10.77;;
18340;SDS011;9296;48.084;16.352;2023-02-28T07:36:10;20.10;;;11.50;;
18340;SDS011;9296;48.084;16.352;2023-02-28T07:38:40;20.08;;;11.60;;
18340;SDS011;9296;48.084;16.352;2023-02-28T07:44:29;23.85;;;12.45;;
18340;SDS011;9296;48.084;16.352;2023-02-28T07:46:55;19.30;;;11.60;;
18340;SDS011;9296;48.084;16.352;2023-02-28T07:49:22;19.38;;;11.93;;
18340;SDS011;9296;48.084;16.352;2023-02-28T07:51:51;20.08;;;11.80;;
18340;SDS011;9296;48.084;16.352;2023-02-28T07:54:17;19.77;;;12.23;;
18340;SDS011;9296;48.084;16.352;2023-02-28T08:00:07;19.98;;;12.32;;
18340;SDS011;9296;48.084;16.352;2023-02-28T08:02:36;18.23;;;11.20;;
18340;SDS011;9296;48.084;16.352;2023-02-28T08:05:03;17.90;;;11.45;;
18340;SDS011;9296;48.084;16.352;2023-02-28T08:07:32;17.48;;;11.35;;
18340;SDS011;9296;48.084;16.352;2023-02-28T08:09:59;19.85;;;11.80;;
18340;SDS011;9296;48.084;16.352;2023-02-28T08:12:26;19.80;;;11.30;;
18340;SDS011;9296;48.084;16.352;2023-02-28T08:14:53;19.60;;;12.02;;
18340;SDS011;9296;48.084;16.352;2023-02-28T08:17:20;19.67;;;11.75;;
18340;SDS011;9296;48.084;16.352;2023-02-28T08:19:47;18.25;;;11.32;;
18340;SDS011;9296;48.084;16.352;2023-02-28T08:22:14;20.60;;;12.90;;
18340;SDS011;9296;48.084;16.352;2023-02-28T08:24:43;18.05;;;12.30;;
18340;SDS011;9296;48.084;16.352;2023-02-28T08:27:10;19.10;;;12.05;;
18340;SDS011;9296;48.084;16.352;2023-02-28T08:29:37;19.83;;;12.05;;
18340;SDS011;9296;48.084;16.352;2023-02-28T08:32:04;18.02;;;12.23;;
18340;SDS011;9296;48.084;16.352;2023-02-28T08:34:31;17.88;;;12.32;;
18340;SDS011;9296;48.084;16.352;2023-02-28T08:36:58;17.75;;;12.27;;
18340;SDS011;9296;48.084;16.352;2023-02-28T08:39:25;18.45;;;12.63;;
18340;SDS011;9296;48.084;16.352;2023-02-28T08:44:39;17.67;;;13.00;;
18340;SDS011;9296;48.084;16.352;2023-02-28T08:47:06;17.50;;;13.23;;
18340;SDS011;9296;48.084;16.352;2023-02-28T08:49:33;17.40;;;13.13;;
18340;SDS011;9296;48.084;16.352;2023-02-28T08:52:00;21.30;;;13.48;;
18340;SDS011;9296;48.084;16.352;2023-02-28T08:54:27;18.98;;;13.38;;
18340;SDS011;9296;48.084;16.352;2023-02-28T08:56:56;16.90;;;12.32;;
18340;SDS011;9296;48.084;16.352;2023-02-28T08:59:24;17.60;;;12.75;;
18340;SDS011;9296;48.084;16.352;2023-02-28T09:01:51;17.90;;;13.23;;
18340;SDS011;9296;48.084;16.352;2023-02-28T09:04:18;18.40;;;12.98;;
18340;SDS011;9296;48.084;16.352;2023-02-28T09:06:45;17.52;;;12.05;;
18340;SDS011;9296;48.084;16.352;2023-02-28T09:09:13;18.50;;;13.55;;
18340;SDS011;9296;48.084;16.352;2023-02-28T09:15:05;17.75;;;13.27;;
18340;SDS011;9296;48.084;16.352;2023-02-28T09:17:33;17.42;;;13.57;;
18340;SDS011;9296;48.084;16.352;2023-02-28T09:20:00;20.00;;;13.68;;
18340;SDS011;9296;48.084;16.352;2023-02-28T09:22:27;19.83;;;14.00;;
18340;SDS011;9296;48.084;16.352;2023-02-28T09:24:54;18.08;;;13.32;;
18340;SDS011;9296;48.084;16.352;2023-02-28T09:27:21;19.02;;;12.57;;
18340;SDS011;9296;48.084;16.352;2023-02-28T09:29:48;18.75;;;13.15;;
18340;SDS011;9296;48.084;16.352;2023-02-28T09:32:16;22.08;;;13.68;;
18340;SDS011;9296;48.084;16.352;2023-02-28T09:34:44;20.67;;;13.38;;
18340;SDS011;9296;48.084;16.352;2023-02-28T09:37:11;20.20;;;12.25;;
18340;SDS011;9296;48.084;16.352;2023-02-28T09:39:38;20.55;;;13.65;;
18340;SDS011;9296;48.084;16.352;2023-02-28T09:42:05;18.23;;;13.00;;
18340;SDS011;9296;48.084;16.352;2023-02-28T09:44:38;17.27;;;12.32;;
18340;SDS011;9296;48.084;16.352;2023-02-28T09:47:10;16.42;;;12.70;;
18340;SDS011;9296;48.084;16.352;2023-02-28T09:49:45;16.98;;;12.23;;
18340;SDS011;9296;48.084;16.352;2023-02-28T09:52:14;16.98;;;12.15;;
18340;SDS011;9296;48.084;16.352;2023-02-28T09:54:44;18.52;;;12.55;;
18340;SDS011;9296;48.084;16.352;2023-02-28T09:57:14;16.40;;;12.18;;
18340;SDS011;9296;48.084;16.352;2023-02-28T09:59:50;17.73;;;12.98;;
18340;SDS011;9296;48.084;16.352;2023-02-28T10:02:38;18.13;;;12.90;;
18340;SDS011;9296;48.084;16.352;2023-02-28T10:05:17;20.27;;;12.65;;
18340;SDS011;9296;48.084;16.352;2023-02-28T10:07:50;18.33;;;12.50;;
18340;SDS011;9296;48.084;16.352;2023-02-28T10:13:33;16.35;;;12.38;;
18340;SDS011;9296;48.084;16.352;2023-02-28T10:16:03;17.25;;;12.27;;
18340;SDS011;9296;48.084;16.352;2023-02-28T10:18:37;19.40;;;12.90;;
18340;SDS011;9296;48.084;16.352;2023-02-28T10:21:11;16.25;;;11.93;;
18340;SDS011;9296;48.084;16.352;2023-02-28T10:23:43;15.98;;;12.05;;
18340;SDS011;9296;48.084;16.352;2023-02-28T10:29:34;16.27;;;12.20;;
18340;SDS011;9296;48.084;16.352;2023-02-28T10:32:01;16.67;;;12.23;;
18340;SDS011;9296;48.084;16.352;2023-02-28T10:34:29;18.77;;;12.63;;
18340;SDS011;9296;48.084;16.352;2023-02-28T10:36:58;17.77;;;12.00;;
18340;SDS011;9296;48.084;16.352;2023-02-28T10:39:39;18.05;;;12.68;;
18340;SDS011;9296;48.084;16.352;2023-02-28T10:42:18;16.60;;;11.88;;
18340;SDS011;9296;48.084;16.352;2023-02-28T10:44:52;15.90;;;12.02;;
18340;SDS011;9296;48.084;16.352;2023-02-28T10:47:32;17.50;;;12.00;;
18340;SDS011;9296;48.084;16.352;2023-02-28T10:50:01;19.38;;;12.73;;
18340;SDS011;9296;48.084;16.352;2023-02-28T10:52:34;18.15;;;12.05;;
18340;SDS011;9296;48.084;16.352;2023-02-28T10:58:26;19.05;;;13.02;;
18340;SDS011;9296;48.084;16.352;2023-02-28T11:00:55;16.85;;;11.57;;
18340;SDS011;9296;48.084;16.352;2023-02-28T11:03:23;18.10;;;12.00;;
18340;SDS011;9296;48.084;16.352;2023-02-28T11:05:54;17.55;;;12.38;;
18340;SDS011;9296;48.084;16.352;2023-02-28T11:08:23;17.33;;;12.50;;
18340;SDS011;9296;48.084;16.352;2023-02-28T11:17:14;16.98;;;12.20;;
18340;SDS011;9296;48.084;16.352;2023-02-28T11:19:47;22.08;;;12.88;;
18340;SDS011;9296;48.084;16.352;2023-02-28T11:22:17;20.15;;;12.75;;
18340;SDS011;9296;48.084;16.352;2023-02-28T11:24:49;21.65;;;11.90;;
18340;SDS011;9296;48.084;16.352;2023-02-28T11:30:40;19.27;;;12.70;;
18340;SDS011;9296;48.084;16.352;2023-02-28T11:33:24;19.80;;;12.93;;
18340;SDS011;9296;48.084;16.352;2023-02-28T11:35:55;19.65;;;12.70;;
18340;SDS011;9296;48.084;16.352;2023-02-28T11:38:25;21.02;;;12.80;;
18340;SDS011;9296;48.084;16.352;2023-02-28T11:40:59;18.75;;;11.93;;
18340;SDS011;9296;48.084;16.352;2023-02-28T11:43:38;19.00;;;12.20;;
18340;SDS011;9296;48.084;16.352;2023-02-28T11:46:19;19.88;;;12.00;;
18340;SDS011;9296;48.084;16.352;2023-02-28T11:48:54;18.95;;;11.90;;
18340;SDS011;9296;48.084;16.352;2023-02-28T11:51:28;21.25;;;11.93;;
18340;SDS011;9296;48.084;16.352;2023-02-28T11:54:04;19.23;;;12.40;;
18340;SDS011;9296;48.084;16.352;2023-02-28T12:00:06;16.45;;;10.73;;
18340;SDS011;9296;48.084;16.352;2023-02-28T12:02:49;16.13;;;10.13;;
18340;SDS011;9296;48.084;16.352;2023-02-28T12:05:30;15.10;;;10.00;;
18340;SDS011;9296;48.084;16.352;2023-02-28T12:08:06;18.40;;;11.43;;
18340;SDS011;9296;48.084;16.352;2023-02-28T12:10:44;20.67;;;11.40;;
18340;SDS011;9296;48.084;16.352;2023-02-28T12:13:22;17.83;;;11.25;;
18340;SDS011;9296;48.084;16.352;2023-02-28T12:21:45;17.00;;;11.35;;
18340;SDS011;9296;48.084;16.352;2023-02-28T12:24:26;15.00;;;10.68;;
18340;SDS011;9296;48.084;16.352;2023-02-28T12:30:35;14.70;;;9.73;;
18340;SDS011;9296;48.084;16.352;2023-02-28T12:33:09;15.77;;;9.43;;
18340;SDS011;9296;48.084;16.352;2023-02-28T12:35:41;14.90;;;10.02;;
18340;SDS011;9296;48.084;16.352;2023-02-28T12:38:14;15.93;;;9.32;;
18340;SDS011;9296;48.084;16.352;2023-02-28T12:40:47;12.63;;;8.95;;
18340;SDS011;9296;48.084;16.352;2023-02-28T12:43:19;16.80;;;9.38;;
18340;SDS011;9296;48.084;16.352;2023-02-28T12:45:50;15.75;;;9.68;;
18340;SDS011;9296;48.084;16.352;2023-02-28T12:48:22;13.77;;;9.13;;
18340;SDS011;9296;48.084;16.352;2023-02-28T12:50:53;15.32;;;9.23;;
18340;SDS011;9296;48.084;16.352;2023-02-28T12:53:23;13.90;;;9.18;;
18340;SDS011;9296;48.084;16.352;2023-02-28T12:55:56;15.52;;;10.10;;
18340;SDS011;9296;48.084;16.352;2023-02-28T12:58:33;14.93;;;9.23;;
18340;SDS011;9296;48.084;16.352;2023-02-28T13:01:14;12.88;;;9.15;;
18340;SDS011;9296;48.084;16.352;2023-02-28T13:07:22;13.60;;;8.70;;
18340;SDS011;9296;48.084;16.352;2023-02-28T13:10:07;14.05;;;9.35;;
18340;SDS011;9296;48.084;16.352;2023-02-28T13:15:40;12.45;;;9.30;;
18340;SDS011;9296;48.084;16.352;2023-02-28T13:18:27;14.57;;;9.27;;
18340;SDS011;9296;48.084;16.352;2023-02-28T13:20:56;13.82;;;9.63;;
18340;SDS011;9296;48.084;16.352;2023-02-28T13:23:38;12.32;;;8.57;;
18340;SDS011;9296;48.084;16.352;2023-02-28T13:32:35;11.55;;;8.55;;
18340;SDS011;9296;48.084;16.352;2023-02-28T13:38:21;12.80;;;8.57;;
18340;SDS011;9296;48.084;16.352;2023-02-28T13:44:06;13.32;;;8.45;;
18340;SDS011;9296;48.084;16.352;2023-02-28T13:46:35;13.02;;;8.55;;
18340;SDS011;9296;48.084;16.352;2023-02-28T13:49:18;12.77;;;8.75;;
18340;SDS011;9296;48.084;16.352;2023-02-28T13:51:46;11.65;;;8.38;;
18340;SDS011;9296;48.084;16.352;2023-02-28T13:54:19;13.98;;;9.02;;
18340;SDS011;9296;48.084;16.352;2023-02-28T13:56:57;13.05;;;8.30;;
18340;SDS011;9296;48.084;16.352;2023-02-28T13:59:35;14.23;;;8.70;;
18340;SDS011;9296;48.084;16.352;2023-02-28T14:02:28;12.63;;;8.20;;
18340;SDS011;9296;48.084;16.352;2023-02-28T14:05:10;11.93;;;8.23;;
18340;SDS011;9296;48.084;16.352;2023-02-28T14:07:43;11.30;;;8.27;;
18340;SDS011;9296;48.084;16.352;2023-02-28T14:10:20;13.98;;;8.27;;
18340;SDS011;9296;48.084;16.352;2023-02-28T14:12:55;13.68;;;8.88;;
18340;SDS011;9296;48.084;16.352;2023-02-28T14:15:43;14.27;;;8.43;;
18340;SDS011;9296;48.084;16.352;2023-02-28T14:18:16;13.02;;;8.43;;
18340;SDS011;9296;48.084;16.352;2023-02-28T14:20:47;12.98;;;8.35;;
18340;SDS011;9296;48.084;16.352;2023-02-28T14:23:16;14.20;;;8.18;;
18340;SDS011;9296;48.084;16.352;2023-02-28T14:26:02;14.30;;;7.80;;
18340;SDS011;9296;48.084;16.352;2023-02-28T14:28:40;11.77;;;8.13;;
18340;SDS011;9296;48.084;16.352;2023-02-28T14:31:18;12.38;;;8.00;;
18340;SDS011;9296;48.084;16.352;2023-02-28T14:36:48;11.23;;;7.65;;
18340;SDS011;9296;48.084;16.352;2023-02-28T14:39:16;11.10;;;7.10;;
18340;SDS011;9296;48.084;16.352;2023-02-28T14:41:46;12.75;;;7.45;;
18340;SDS011;9296;48.084;16.352;2023-02-28T14:44:14;12.40;;;7.15;;
18340;SDS011;9296;48.084;16.352;2023-02-28T14:46:44;10.00;;;7.03;;
18340;SDS011;9296;48.084;16.352;2023-02-28T14:49:16;13.38;;;7.03;;
18340;SDS011;9296;48.084;16.352;2023-02-28T14:51:45;14.13;;;8.05;;
18340;SDS011;9296;48.084;16.352;2023-02-28T14:54:14;9.93;;;7.47;;
18340;SDS011;9296;48.084;16.352;2023-02-28T14:56:43;11.98;;;8.27;;
18340;SDS011;9296;48.084;16.352;2023-02-28T14:59:26;11.00;;;7.45;;
18340;SDS011;9296;48.084;16.352;2023-02-28T15:04:43;12.02;;;8.23;;
18340;SDS011;9296;48.084;16.352;2023-02-28T15:07:20;10.88;;;8.43;;
18340;SDS011;9296;48.084;16.352;2023-02-28T15:10:06;10.55;;;8.00;;
18340;SDS011;9296;48.084;16.352;2023-02-28T15:12:34;13.30;;;8.70;;
18340;SDS011;9296;48.084;16.352;2023-02-28T15:15:02;13.00;;;9.02;;
18340;SDS011;9296;48.084;16.352;2023-02-28T15:17:30;15.20;;;8.20;;
18340;SDS011;9296;48.084;16.352;2023-02-28T15:19:57;12.02;;;8.25;;
18340;SDS011;9296;48.084;16.352;2023-02-28T15:22:27;12.07;;;7.90;;
18340;SDS011;9296;48.084;16.352;2023-02-28T15:24:59;12.43;;;8.70;;
18340;SDS011;9296;48.084;16.352;2023-02-28T15:27:31;11.98;;;8.63;;
18340;SDS011;9296;48.084;16.352;2023-02-28T15:29:59;12.40;;;8.40;;
18340;SDS011;9296;48.084;16.352;2023-02-28T15:32:33;14.63;;;9.20;;
18340;SDS011;9296;48.084;16.352;2023-02-28T15:37:47;12.32;;;8.18;;
18340;SDS011;9296;48.084;16.352;2023-02-28T15:40:23;14.88;;;8.93;;
18340;SDS011;9296;48.084;16.352;2023-02-28T15:42:59;12.60;;;8.18;;
18340;SDS011;9296;48.084;16.352;2023-02-28T15:45:37;12.57;;;7.60;;
18340;SDS011;9296;48.084;16.352;2023-02-28T15:48:13;11.95;;;8.63;;
18340;SDS011;9296;48.084;16.352;2023-02-28T15:50:47;12.95;;;9.00;;
18340;SDS011;9296;48.084;16.352;2023-02-28T15:53:17;13.57;;;8.98;;
18340;SDS011;9296;48.084;16.352;2023-02-28T15:55:51;15.13;;;9.23;;
18340;SDS011;9296;48.084;16.352;2023-02-28T16:05:23;13.57;;;7.88;;
18340;SDS011;9296;48.084;16.352;2023-02-28T16:07:57;13.82;;;8.43;;
18340;SDS011;9296;48.084;16.352;2023-02-28T16:10:25;15.02;;;8.27;;
18340;SDS011;9296;48.084;16.352;2023-02-28T16:12:54;12.07;;;8.50;;
18340;SDS011;9296;48.084;16.352;2023-02-28T16:15:23;12.65;;;8.27;;
18340;SDS011;9296;48.084;16.352;2023-02-28T16:17:52;13.45;;;9.07;;
18340;SDS011;9296;48.084;16.352;2023-02-28T16:20:20;13.40;;;8.07;;
18340;SDS011;9296;48.084;16.352;2023-02-28T16:22:51;13.38;;;8.88;;
18340;SDS011;9296;48.084;16.352;2023-02-28T16:25:19;15.88;;;9.00;;
18340;SDS011;9296;48.084;16.352;2023-02-28T16:27:48;15.05;;;9.55;;
18340;SDS011;9296;48.084;16.352;2023-02-28T16:30:19;14.45;;;10.48;;
18340;SDS011;9296;48.084;16.352;2023-02-28T16:32:49;16.10;;;9.80;;
18340;SDS011;9296;48.084;16.352;2023-02-28T16:35:17;15.63;;;10.30;;
18340;SDS011;9296;48.084;16.352;2023-02-28T16:37:46;14.00;;;10.52;;
18340;SDS011;9296;48.084;16.352;2023-02-28T16:40:14;16.70;;;10.77;;
18340;SDS011;9296;48.084;16.352;2023-02-28T16:42:42;18.42;;;10.82;;
18340;SDS011;9296;48.084;16.352;2023-02-28T16:45:14;17.95;;;10.60;;
18340;SDS011;9296;48.084;16.352;2023-02-28T16:47:44;15.25;;;11.32;;
18340;SDS011;9296;48.084;16.352;2023-02-28T16:50:15;16.15;;;11.05;;
18340;SDS011;9296;48.084;16.352;2023-02-28T16:52:43;17.63;;;11.00;;
18340;SDS011;9296;48.084;16.352;2023-02-28T16:55:11;16.95;;;11.40;;
18340;SDS011;9296;48.084;16.352;2023-02-28T16:57:57;17.88;;;12.00;;
18340;SDS011;9296;48.084;16.352;2023-02-28T17:00:27;19.60;;;11.98;;
18340;SDS011;9296;48.084;16.352;2023-02-28T17:02:55;18.58;;;11.52;;
18340;SDS011;9296;48.084;16.352;2023-02-28T17:05:24;20.55;;;13.15;;
18340;SDS011;9296;48.084;16.352;2023-02-28T17:07:52;17.73;;;11.88;;
18340;SDS011;9296;48.084;16.352;2023-02-28T17:10:21;20.45;;;13.15;;